Cissna Park, Illinois
Current Conditions -  °F | °C
As of 7:55 AM on Wednesday 28 Jan 2015 (Local Time) from KTIP Reporting Station
Clear Clear  
Wind Chill: 15°   Ceiling: Unl
Heat Index: 24°   Visibility: 7mi
Dew Point: 20°   Wind: 8mph
Humidity: 84%   Direction: 140°SE
Pressure: 30.29"   Gusts: NA
Location:  40.56°N, 87.89°W
Report Text: KTIP 281355Z AUTO 14007KT 7SM CLR M04/M07 A3029 RMK AO2 T10431067
Loading
Personal Weather Stations






























Interactive Weather Map New forecast layout! Learn more

10-Day Weather Forecast

Advertisements
Track Severe Weather on mobile